createdAt,value
2018-06-08T00:02:12.453Z,23.1
2018-06-08T00:12:11.690Z,23
2018-06-08T00:22:10.948Z,22.9
2018-06-08T00:32:10.131Z,22.9
2018-06-08T00:42:09.466Z,22.9
2018-06-08T00:52:08.711Z,22.8
2018-06-08T01:02:07.828Z,22.8
2018-06-08T01:12:07.207Z,22.8
2018-06-08T01:22:06.577Z,22.7
2018-06-08T01:32:05.516Z,22.6
2018-06-08T01:42:05.061Z,22.6
2018-06-08T01:52:03.970Z,22.4
2018-06-08T02:02:03.224Z,22.4
2018-06-08T02:12:02.454Z,22.4
2018-06-08T02:22:01.670Z,22.4
2018-06-08T02:32:00.888Z,22.4
2018-06-08T02:42:00.120Z,22.3
2018-06-08T02:51:59.364Z,22.4
2018-06-08T03:01:58.654Z,22.4
2018-06-08T03:11:58.139Z,22.5
2018-06-08T03:21:57.048Z,22.7
2018-06-08T03:31:56.277Z,22.9
2018-06-08T03:41:55.528Z,23.1
2018-06-08T03:51:54.826Z,23.2
2018-06-08T04:01:54.079Z,23.2
2018-06-08T04:11:53.262Z,23.2
2018-06-08T04:21:52.499Z,23.3
2018-06-08T04:31:51.737Z,23.4
2018-06-08T04:41:51.003Z,23.7
2018-06-08T04:51:50.219Z,23.9
2018-06-08T05:01:49.413Z,24.1
2018-06-08T05:11:48.708Z,24.3
2018-06-08T05:21:47.881Z,24.4
2018-06-08T05:31:47.527Z,24.6
2018-06-08T05:41:46.338Z,24.8
2018-06-08T05:51:45.593Z,24.9
2018-06-08T06:01:45.102Z,25
2018-06-08T06:11:44.040Z,25.1
2018-06-08T06:21:43.312Z,25.2
2018-06-08T06:31:42.535Z,25.3
2018-06-08T06:41:42.009Z,25.4
2018-06-08T06:51:40.949Z,25.4
2018-06-08T07:01:40.185Z,25.6
2018-06-08T07:11:39.729Z,25.7
2018-06-08T07:21:38.639Z,25.8
2018-06-08T07:31:37.959Z,25.9
2018-06-08T07:41:37.097Z,25.9
2018-06-08T07:51:36.334Z,26.1
2018-06-08T08:01:35.566Z,26.2
2018-06-08T08:11:35.080Z,26.3
2018-06-08T08:21:34.013Z,26.4
2018-06-08T08:31:33.539Z,26.4
2018-06-08T08:41:32.476Z,26.5
2018-06-08T08:51:31.742Z,26.6
2018-06-08T09:01:31.056Z,26.6
2018-06-08T09:11:30.182Z,26.7
2018-06-08T09:21:29.397Z,26.8
2018-06-08T09:31:28.621Z,26.8
2018-06-08T09:41:27.858Z,26.9
2018-06-08T09:51:27.081Z,26.9
2018-06-08T10:01:26.314Z,27
2018-06-08T10:11:25.570Z,27.1
2018-06-08T10:21:24.780Z,27.1
2018-06-08T10:31:24.072Z,27.2
2018-06-08T10:41:23.313Z,27.3
2018-06-08T10:51:22.471Z,27.3
2018-06-08T11:01:21.720Z,27.5
2018-06-08T11:11:21.229Z,27.6
2018-06-08T11:21:20.163Z,27.6
2018-06-08T11:31:19.392Z,27.6
2018-06-08T11:41:18.687Z,27.7
2018-06-08T11:51:17.873Z,27.8
2018-06-08T12:01:17.160Z,27.8
2018-06-08T12:11:16.331Z,27.9
2018-06-08T12:21:15.557Z,27.9
2018-06-08T12:31:14.786Z,27.9
2018-06-08T12:41:14.124Z,28
2018-06-08T12:51:13.256Z,28
2018-06-08T13:01:12.528Z,27.9
2018-06-08T13:11:11.706Z,27.9
2018-06-08T13:21:11.058Z,27.9
2018-06-08T13:31:10.233Z,27.9
2018-06-08T13:41:09.468Z,27.9
2018-06-08T13:51:08.634Z,27.9
2018-06-08T14:01:08.052Z,27.9
2018-06-08T14:11:07.178Z,27.9
2018-06-08T14:21:06.399Z,27.8
2018-06-08T14:31:05.627Z,27.7
2018-06-08T14:41:04.847Z,27.7
2018-06-08T14:51:04.131Z,27.6
2018-06-08T15:01:03.347Z,27.5
2018-06-08T15:11:02.554Z,27.4
2018-06-08T15:21:01.781Z,27.4
2018-06-08T15:31:01.014Z,27.4
2018-06-08T15:41:00.247Z,27.3
2018-06-08T15:50:59.484Z,27.4
2018-06-08T16:00:59.097Z,27.4
2018-06-08T16:10:57.972Z,27.4
2018-06-08T16:20:57.196Z,27.3
2018-06-08T16:30:56.420Z,27.1
2018-06-08T16:40:55.952Z,27
2018-06-08T16:50:54.921Z,26.9
2018-06-08T17:00:54.249Z,26.8
2018-06-08T17:10:53.372Z,26.6
2018-06-08T17:20:52.600Z,26.4
2018-06-08T17:30:51.822Z,26.3
2018-06-08T17:40:51.066Z,26.1
2018-06-08T17:50:50.315Z,26
2018-06-08T18:00:49.549Z,25.9
2018-06-08T18:10:48.790Z,25.9
2018-06-08T18:20:48.012Z,25.9
2018-06-08T18:30:47.246Z,25.8
2018-06-08T18:40:46.479Z,25.6
2018-06-08T18:50:46.012Z,25.5
2018-06-08T19:00:44.977Z,25.4
2018-06-08T19:10:44.480Z,25.3
2018-06-08T19:20:43.525Z,25.3
2018-06-08T19:30:42.681Z,25.3
2018-06-08T19:40:41.883Z,25.3
2018-06-08T19:50:41.123Z,25.3
2018-06-08T20:00:40.367Z,25.4
2018-06-08T20:10:39.578Z,25.3
2018-06-08T20:20:38.815Z,25.3
2018-06-08T20:30:38.041Z,25.3
2018-06-08T20:40:37.362Z,25.3
2018-06-08T20:50:36.525Z,25.3
2018-06-08T21:00:35.762Z,25.2
2018-06-08T21:10:34.979Z,25.1
2018-06-08T21:20:34.223Z,25
2018-06-08T21:30:33.450Z,24.9
2018-06-08T21:40:32.962Z,24.9
2018-06-08T21:50:31.934Z,24.9
2018-06-08T22:00:31.159Z,24.8
2018-06-08T22:10:30.426Z,24.8
2018-06-08T22:20:29.952Z,24.7
2018-06-08T22:30:29.158Z,24.6
2018-06-08T22:40:28.149Z,24.6
2018-06-08T22:50:27.370Z,24.5
2018-06-08T23:00:26.543Z,24.5
2018-06-08T23:10:25.793Z,24.5
2018-06-08T23:20:25.026Z,24.5
2018-06-08T23:30:24.264Z,24.5
2018-06-08T23:40:23.778Z,24.5
2018-06-08T23:50:22.709Z,24.4
